sensor_id;sensor_type;location;lat;lon;timestamp;P1;durP1;ratioP1;P2;durP2;ratioP2
68050;SDS011;54839;51.364;7.246;2023-03-14T00:00:55;3.37;;;1.40;;
68050;SDS011;54839;51.364;7.246;2023-03-14T00:03:21;6.63;;;2.00;;
68050;SDS011;54839;51.364;7.246;2023-03-14T00:05:46;4.73;;;1.70;;
68050;SDS011;54839;51.364;7.246;2023-03-14T00:08:12;5.10;;;1.37;;
68050;SDS011;54839;51.364;7.246;2023-03-14T00:10:37;4.33;;;1.63;;
68050;SDS011;54839;51.364;7.246;2023-03-14T00:13:03;5.97;;;1.57;;
68050;SDS011;54839;51.364;7.246;2023-03-14T00:15:29;3.57;;;1.60;;
68050;SDS011;54839;51.364;7.246;2023-03-14T00:17:54;2.70;;;1.50;;
68050;SDS011;54839;51.364;7.246;2023-03-14T00:20:20;10.37;;;2.03;;
68050;SDS011;54839;51.364;7.246;2023-03-14T00:22:45;4.77;;;2.03;;
68050;SDS011;54839;51.364;7.246;2023-03-14T00:25:11;4.20;;;1.80;;
68050;SDS011;54839;51.364;7.246;2023-03-14T00:27:37;5.37;;;2.00;;
68050;SDS011;54839;51.364;7.246;2023-03-14T00:30:03;7.77;;;2.00;;
68050;SDS011;54839;51.364;7.246;2023-03-14T00:32:30;9.03;;;2.43;;
68050;SDS011;54839;51.364;7.246;2023-03-14T00:34:55;7.43;;;1.87;;
68050;SDS011;54839;51.364;7.246;2023-03-14T00:37:21;4.20;;;1.67;;
68050;SDS011;54839;51.364;7.246;2023-03-14T00:39:46;2.23;;;1.37;;
68050;SDS011;54839;51.364;7.246;2023-03-14T00:42:12;3.93;;;1.80;;
68050;SDS011;54839;51.364;7.246;2023-03-14T00:44:38;7.20;;;2.10;;
68050;SDS011;54839;51.364;7.246;2023-03-14T00:47:04;3.47;;;1.40;;
68050;SDS011;54839;51.364;7.246;2023-03-14T00:49:29;4.17;;;1.63;;
68050;SDS011;54839;51.364;7.246;2023-03-14T00:51:55;4.13;;;1.50;;
68050;SDS011;54839;51.364;7.246;2023-03-14T00:54:20;3.70;;;1.40;;
68050;SDS011;54839;51.364;7.246;2023-03-14T00:56:46;4.00;;;2.00;;
68050;SDS011;54839;51.364;7.246;2023-03-14T00:59:12;5.80;;;2.23;;
68050;SDS011;54839;51.364;7.246;2023-03-14T01:01:38;8.13;;;2.13;;
68050;SDS011;54839;51.364;7.246;2023-03-14T01:04:04;4.03;;;1.80;;
68050;SDS011;54839;51.364;7.246;2023-03-14T01:06:30;4.87;;;1.67;;
68050;SDS011;54839;51.364;7.246;2023-03-14T01:08:56;10.23;;;2.20;;
68050;SDS011;54839;51.364;7.246;2023-03-14T01:11:24;4.77;;;1.50;;
68050;SDS011;54839;51.364;7.246;2023-03-14T01:13:52;3.00;;;2.07;;
68050;SDS011;54839;51.364;7.246;2023-03-14T01:16:18;1.33;;;0.80;;
68050;SDS011;54839;51.364;7.246;2023-03-14T01:18:45;1.90;;;0.73;;
68050;SDS011;54839;51.364;7.246;2023-03-14T01:21:24;2.03;;;0.93;;
68050;SDS011;54839;51.364;7.246;2023-03-14T01:23:53;5.70;;;1.00;;
68050;SDS011;54839;51.364;7.246;2023-03-14T01:26:21;3.27;;;1.40;;
68050;SDS011;54839;51.364;7.246;2023-03-14T01:28:48;5.73;;;1.90;;
68050;SDS011;54839;51.364;7.246;2023-03-14T01:31:15;2.83;;;1.07;;
68050;SDS011;54839;51.364;7.246;2023-03-14T01:33:41;2.47;;;1.17;;
68050;SDS011;54839;51.364;7.246;2023-03-14T01:36:07;10.10;;;1.80;;
68050;SDS011;54839;51.364;7.246;2023-03-14T01:38:34;2.20;;;0.93;;
68050;SDS011;54839;51.364;7.246;2023-03-14T01:41:01;4.37;;;1.63;;
68050;SDS011;54839;51.364;7.246;2023-03-14T01:43:27;4.87;;;0.90;;
68050;SDS011;54839;51.364;7.246;2023-03-14T01:48:31;5.30;;;1.40;;
68050;SDS011;54839;51.364;7.246;2023-03-14T01:51:08;9.50;;;1.40;;
68050;SDS011;54839;51.364;7.246;2023-03-14T01:53:36;5.60;;;1.53;;
68050;SDS011;54839;51.364;7.246;2023-03-14T01:56:03;2.00;;;1.33;;
68050;SDS011;54839;51.364;7.246;2023-03-14T01:58:30;3.70;;;1.40;;
68050;SDS011;54839;51.364;7.246;2023-03-14T02:00:59;5.67;;;1.53;;
68050;SDS011;54839;51.364;7.246;2023-03-14T02:03:26;6.60;;;1.50;;
68050;SDS011;54839;51.364;7.246;2023-03-14T02:05:54;5.87;;;2.23;;
68050;SDS011;54839;51.364;7.246;2023-03-14T02:08:24;4.97;;;1.50;;
68050;SDS011;54839;51.364;7.246;2023-03-14T02:10:52;4.70;;;1.10;;
68050;SDS011;54839;51.364;7.246;2023-03-14T02:13:19;4.97;;;2.30;;
68050;SDS011;54839;51.364;7.246;2023-03-14T02:15:46;5.00;;;1.07;;
68050;SDS011;54839;51.364;7.246;2023-03-14T02:18:12;2.87;;;1.10;;
68050;SDS011;54839;51.364;7.246;2023-03-14T02:23:17;2.93;;;1.10;;
68050;SDS011;54839;51.364;7.246;2023-03-14T02:29:14;2.73;;;1.57;;
68050;SDS011;54839;51.364;7.246;2023-03-14T02:31:39;3.90;;;1.63;;
68050;SDS011;54839;51.364;7.246;2023-03-14T02:34:05;4.50;;;1.00;;
68050;SDS011;54839;51.364;7.246;2023-03-14T02:36:31;5.70;;;1.60;;
68050;SDS011;54839;51.364;7.246;2023-03-14T02:39:06;5.57;;;1.33;;
68050;SDS011;54839;51.364;7.246;2023-03-14T02:41:37;4.27;;;1.10;;
68050;SDS011;54839;51.364;7.246;2023-03-14T02:44:02;9.87;;;3.53;;
68050;SDS011;54839;51.364;7.246;2023-03-14T02:46:28;6.83;;;1.10;;
68050;SDS011;54839;51.364;7.246;2023-03-14T02:48:56;7.60;;;1.53;;
68050;SDS011;54839;51.364;7.246;2023-03-14T02:51:26;2.60;;;1.43;;
68050;SDS011;54839;51.364;7.246;2023-03-14T02:53:53;3.40;;;1.30;;
68050;SDS011;54839;51.364;7.246;2023-03-14T02:56:19;3.80;;;1.60;;
68050;SDS011;54839;51.364;7.246;2023-03-14T02:58:44;3.83;;;1.30;;
68050;SDS011;54839;51.364;7.246;2023-03-14T03:01:10;4.40;;;1.30;;
68050;SDS011;54839;51.364;7.246;2023-03-14T03:03:35;6.80;;;1.40;;
68050;SDS011;54839;51.364;7.246;2023-03-14T03:06:01;5.97;;;1.20;;
68050;SDS011;54839;51.364;7.246;2023-03-14T03:08:28;3.07;;;1.17;;
68050;SDS011;54839;51.364;7.246;2023-03-14T03:10:54;6.50;;;1.10;;
68050;SDS011;54839;51.364;7.246;2023-03-14T03:13:21;6.30;;;2.13;;
68050;SDS011;54839;51.364;7.246;2023-03-14T03:15:46;3.57;;;1.10;;
68050;SDS011;54839;51.364;7.246;2023-03-14T03:18:12;1.33;;;0.70;;
68050;SDS011;54839;51.364;7.246;2023-03-14T03:20:37;9.10;;;1.50;;
68050;SDS011;54839;51.364;7.246;2023-03-14T03:23:03;2.40;;;0.90;;
68050;SDS011;54839;51.364;7.246;2023-03-14T03:25:29;3.83;;;1.43;;
68050;SDS011;54839;51.364;7.246;2023-03-14T03:27:55;10.40;;;2.00;;
68050;SDS011;54839;51.364;7.246;2023-03-14T03:30:21;3.90;;;1.33;;
68050;SDS011;54839;51.364;7.246;2023-03-14T03:32:47;8.87;;;2.30;;
68050;SDS011;54839;51.364;7.246;2023-03-14T03:35:12;3.83;;;1.50;;
68050;SDS011;54839;51.364;7.246;2023-03-14T03:37:38;1.30;;;0.73;;
68050;SDS011;54839;51.364;7.246;2023-03-14T03:40:04;4.47;;;1.50;;
68050;SDS011;54839;51.364;7.246;2023-03-14T03:42:31;2.50;;;1.80;;
68050;SDS011;54839;51.364;7.246;2023-03-14T03:44:58;7.53;;;1.73;;
68050;SDS011;54839;51.364;7.246;2023-03-14T03:47:24;2.33;;;1.53;;
68050;SDS011;54839;51.364;7.246;2023-03-14T03:49:50;4.00;;;1.40;;
68050;SDS011;54839;51.364;7.246;2023-03-14T03:52:16;4.97;;;1.53;;
68050;SDS011;54839;51.364;7.246;2023-03-14T03:54:41;7.03;;;1.40;;
68050;SDS011;54839;51.364;7.246;2023-03-14T03:57:07;10.37;;;2.67;;
68050;SDS011;54839;51.364;7.246;2023-03-14T03:59:32;5.90;;;1.57;;
68050;SDS011;54839;51.364;7.246;2023-03-14T04:01:58;3.73;;;0.77;;
68050;SDS011;54839;51.364;7.246;2023-03-14T04:04:23;1.33;;;0.57;;
68050;SDS011;54839;51.364;7.246;2023-03-14T04:06:49;4.83;;;1.63;;
68050;SDS011;54839;51.364;7.246;2023-03-14T04:09:14;1.87;;;1.00;;
68050;SDS011;54839;51.364;7.246;2023-03-14T04:11:40;3.23;;;0.70;;
68050;SDS011;54839;51.364;7.246;2023-03-14T04:14:06;4.23;;;1.10;;
68050;SDS011;54839;51.364;7.246;2023-03-14T04:16:32;1.83;;;0.80;;
68050;SDS011;54839;51.364;7.246;2023-03-14T04:18:58;3.20;;;1.10;;
68050;SDS011;54839;51.364;7.246;2023-03-14T04:21:23;3.70;;;0.83;;
68050;SDS011;54839;51.364;7.246;2023-03-14T04:23:49;2.50;;;1.10;;
68050;SDS011;54839;51.364;7.246;2023-03-14T04:26:15;4.23;;;1.30;;
68050;SDS011;54839;51.364;7.246;2023-03-14T04:28:41;6.97;;;1.40;;
68050;SDS011;54839;51.364;7.246;2023-03-14T04:31:10;2.47;;;1.20;;
68050;SDS011;54839;51.364;7.246;2023-03-14T04:33:37;3.50;;;1.73;;
68050;SDS011;54839;51.364;7.246;2023-03-14T04:36:04;7.37;;;3.40;;
68050;SDS011;54839;51.364;7.246;2023-03-14T04:38:30;5.17;;;2.60;;
68050;SDS011;54839;51.364;7.246;2023-03-14T04:40:56;3.53;;;2.10;;
68050;SDS011;54839;51.364;7.246;2023-03-14T04:43:22;4.43;;;2.37;;
68050;SDS011;54839;51.364;7.246;2023-03-14T04:45:48;8.20;;;2.50;;
68050;SDS011;54839;51.364;7.246;2023-03-14T04:48:13;4.30;;;2.20;;
68050;SDS011;54839;51.364;7.246;2023-03-14T04:50:39;4.63;;;2.27;;
68050;SDS011;54839;51.364;7.246;2023-03-14T04:53:05;7.37;;;3.03;;
68050;SDS011;54839;51.364;7.246;2023-03-14T04:55:31;5.10;;;3.30;;
68050;SDS011;54839;51.364;7.246;2023-03-14T04:57:57;5.57;;;2.80;;
68050;SDS011;54839;51.364;7.246;2023-03-14T05:00:23;5.83;;;2.60;;
68050;SDS011;54839;51.364;7.246;2023-03-14T05:02:48;6.50;;;2.40;;
68050;SDS011;54839;51.364;7.246;2023-03-14T05:05:14;4.47;;;2.07;;
68050;SDS011;54839;51.364;7.246;2023-03-14T05:07:40;5.80;;;1.93;;
68050;SDS011;54839;51.364;7.246;2023-03-14T05:10:05;9.53;;;1.80;;
68050;SDS011;54839;51.364;7.246;2023-03-14T05:12:31;5.97;;;1.60;;
68050;SDS011;54839;51.364;7.246;2023-03-14T05:14:57;4.63;;;1.63;;
68050;SDS011;54839;51.364;7.246;2023-03-14T05:17:22;6.90;;;2.13;;
68050;SDS011;54839;51.364;7.246;2023-03-14T05:19:48;5.37;;;2.20;;
68050;SDS011;54839;51.364;7.246;2023-03-14T05:22:13;7.20;;;2.10;;
68050;SDS011;54839;51.364;7.246;2023-03-14T05:24:39;6.93;;;2.17;;
68050;SDS011;54839;51.364;7.246;2023-03-14T05:27:04;4.43;;;1.40;;
68050;SDS011;54839;51.364;7.246;2023-03-14T05:29:30;4.63;;;1.97;;
68050;SDS011;54839;51.364;7.246;2023-03-14T05:31:55;6.13;;;2.10;;
68050;SDS011;54839;51.364;7.246;2023-03-14T05:34:21;3.63;;;2.53;;
68050;SDS011;54839;51.364;7.246;2023-03-14T05:36:47;8.03;;;1.77;;
68050;SDS011;54839;51.364;7.246;2023-03-14T05:39:12;4.53;;;1.97;;
68050;SDS011;54839;51.364;7.246;2023-03-14T05:41:38;6.50;;;1.90;;
68050;SDS011;54839;51.364;7.246;2023-03-14T05:44:03;3.83;;;1.20;;
68050;SDS011;54839;51.364;7.246;2023-03-14T05:46:29;4.97;;;1.97;;
68050;SDS011;54839;51.364;7.246;2023-03-14T05:48:56;6.80;;;2.77;;
68050;SDS011;54839;51.364;7.246;2023-03-14T05:51:22;3.43;;;1.30;;
68050;SDS011;54839;51.364;7.246;2023-03-14T05:53:48;4.23;;;1.63;;
68050;SDS011;54839;51.364;7.246;2023-03-14T05:56:13;3.53;;;1.30;;
68050;SDS011;54839;51.364;7.246;2023-03-14T05:58:39;3.27;;;1.30;;
68050;SDS011;54839;51.364;7.246;2023-03-14T06:01:05;3.13;;;1.10;;
68050;SDS011;54839;51.364;7.246;2023-03-14T06:03:31;5.17;;;1.53;;
68050;SDS011;54839;51.364;7.246;2023-03-14T06:05:57;2.87;;;1.10;;
68050;SDS011;54839;51.364;7.246;2023-03-14T06:08:23;2.90;;;1.20;;
68050;SDS011;54839;51.364;7.246;2023-03-14T06:10:49;3.30;;;1.20;;
68050;SDS011;54839;51.364;7.246;2023-03-14T06:13:16;3.10;;;0.97;;
68050;SDS011;54839;51.364;7.246;2023-03-14T06:15:41;2.53;;;0.93;;
68050;SDS011;54839;51.364;7.246;2023-03-14T06:18:07;6.93;;;1.50;;
68050;SDS011;54839;51.364;7.246;2023-03-14T06:20:32;2.93;;;1.13;;
68050;SDS011;54839;51.364;7.246;2023-03-14T06:23:00;1.80;;;0.80;;
68050;SDS011;54839;51.364;7.246;2023-03-14T06:25:26;1.37;;;0.90;;
68050;SDS011;54839;51.364;7.246;2023-03-14T06:27:51;2.97;;;1.07;;
68050;SDS011;54839;51.364;7.246;2023-03-14T06:30:17;1.77;;;0.93;;
68050;SDS011;54839;51.364;7.246;2023-03-14T06:32:42;6.03;;;0.90;;
68050;SDS011;54839;51.364;7.246;2023-03-14T06:35:08;3.03;;;0.57;;
68050;SDS011;54839;51.364;7.246;2023-03-14T06:37:33;7.53;;;1.17;;
68050;SDS011;54839;51.364;7.246;2023-03-14T06:39:59;1.53;;;0.90;;
68050;SDS011;54839;51.364;7.246;2023-03-14T06:42:25;1.07;;;0.67;;
68050;SDS011;54839;51.364;7.246;2023-03-14T06:44:50;5.00;;;1.53;;
68050;SDS011;54839;51.364;7.246;2023-03-14T06:47:16;3.40;;;0.90;;
68050;SDS011;54839;51.364;7.246;2023-03-14T06:49:41;5.60;;;0.90;;
68050;SDS011;54839;51.364;7.246;2023-03-14T06:52:07;2.50;;;0.90;;
68050;SDS011;54839;51.364;7.246;2023-03-14T06:54:32;1.30;;;0.90;;
68050;SDS011;54839;51.364;7.246;2023-03-14T06:56:58;1.07;;;0.80;;
68050;SDS011;54839;51.364;7.246;2023-03-14T06:59:24;2.03;;;0.90;;
68050;SDS011;54839;51.364;7.246;2023-03-14T07:01:49;1.37;;;0.57;;
68050;SDS011;54839;51.364;7.246;2023-03-14T07:04:15;1.73;;;0.80;;
68050;SDS011;54839;51.364;7.246;2023-03-14T07:06:42;1.50;;;1.00;;
68050;SDS011;54839;51.364;7.246;2023-03-14T07:09:09;1.00;;;0.70;;
68050;SDS011;54839;51.364;7.246;2023-03-14T07:11:36;2.10;;;1.17;;
68050;SDS011;54839;51.364;7.246;2023-03-14T07:14:01;1.40;;;0.70;;
68050;SDS011;54839;51.364;7.246;2023-03-14T07:16:27;0.80;;;0.53;;
68050;SDS011;54839;51.364;7.246;2023-03-14T07:18:56;0.80;;;0.57;;
68050;SDS011;54839;51.364;7.246;2023-03-14T07:21:21;0.80;;;0.47;;
68050;SDS011;54839;51.364;7.246;2023-03-14T07:23:47;1.20;;;0.50;;
68050;SDS011;54839;51.364;7.246;2023-03-14T07:26:13;1.57;;;0.93;;
68050;SDS011;54839;51.364;7.246;2023-03-14T07:28:38;0.93;;;0.73;;
68050;SDS011;54839;51.364;7.246;2023-03-14T07:31:04;1.10;;;0.63;;
68050;SDS011;54839;51.364;7.246;2023-03-14T07:33:30;3.23;;;0.77;;
68050;SDS011;54839;51.364;7.246;2023-03-14T07:35:55;1.47;;;0.60;;
68050;SDS011;54839;51.364;7.246;2023-03-14T07:38:21;9.97;;;1.10;;
68050;SDS011;54839;51.364;7.246;2023-03-14T07:40:46;2.13;;;0.70;;
68050;SDS011;54839;51.364;7.246;2023-03-14T07:43:12;5.60;;;1.40;;
68050;SDS011;54839;51.364;7.246;2023-03-14T07:45:37;1.63;;;0.67;;
68050;SDS011;54839;51.364;7.246;2023-03-14T07:48:03;1.00;;;0.70;;
68050;SDS011;54839;51.364;7.246;2023-03-14T07:50:29;1.80;;;1.43;;
68050;SDS011;54839;51.364;7.246;2023-03-14T07:52:54;1.77;;;1.00;;
68050;SDS011;54839;51.364;7.246;2023-03-14T07:55:20;1.97;;;1.10;;
68050;SDS011;54839;51.364;7.246;2023-03-14T07:57:45;1.83;;;1.70;;
68050;SDS011;54839;51.364;7.246;2023-03-14T08:00:11;2.53;;;1.60;;
68050;SDS011;54839;51.364;7.246;2023-03-14T08:02:39;1.33;;;1.23;;
68050;SDS011;54839;51.364;7.246;2023-03-14T08:05:05;1.60;;;1.30;;
68050;SDS011;54839;51.364;7.246;2023-03-14T08:07:31;2.20;;;1.50;;
68050;SDS011;54839;51.364;7.246;2023-03-14T08:09:56;3.23;;;1.77;;
68050;SDS011;54839;51.364;7.246;2023-03-14T08:12:22;1.60;;;1.50;;
68050;SDS011;54839;51.364;7.246;2023-03-14T08:14:47;1.37;;;1.27;;
68050;SDS011;54839;51.364;7.246;2023-03-14T08:17:13;3.53;;;1.10;;
68050;SDS011;54839;51.364;7.246;2023-03-14T08:19:38;2.70;;;1.43;;
68050;SDS011;54839;51.364;7.246;2023-03-14T08:22:06;1.70;;;1.60;;
68050;SDS011;54839;51.364;7.246;2023-03-14T08:24:31;1.50;;;1.40;;
68050;SDS011;54839;51.364;7.246;2023-03-14T08:26:57;4.17;;;1.80;;
68050;SDS011;54839;51.364;7.246;2023-03-14T08:29:23;2.20;;;1.77;;
68050;SDS011;54839;51.364;7.246;2023-03-14T08:31:48;2.30;;;1.55;;
68050;SDS011;54839;51.364;7.246;2023-03-14T08:34:14;2.00;;;1.70;;
68050;SDS011;54839;51.364;7.246;2023-03-14T08:36:40;7.73;;;4.50;;
68050;SDS011;54839;51.364;7.246;2023-03-14T08:39:06;1.93;;;1.50;;
68050;SDS011;54839;51.364;7.246;2023-03-14T08:41:32;3.67;;;1.53;;
68050;SDS011;54839;51.364;7.246;2023-03-14T08:44:04;2.40;;;1.70;;
68050;SDS011;54839;51.364;7.246;2023-03-14T08:46:34;3.10;;;1.90;;
68050;SDS011;54839;51.364;7.246;2023-03-14T08:49:00;3.10;;;2.57;;
68050;SDS011;54839;51.364;7.246;2023-03-14T08:51:25;2.60;;;2.40;;
68050;SDS011;54839;51.364;7.246;2023-03-14T08:53:51;2.63;;;2.43;;
68050;SDS011;54839;51.364;7.246;2023-03-14T08:56:16;5.90;;;2.67;;
68050;SDS011;54839;51.364;7.246;2023-03-14T08:58:42;2.67;;;2.10;;
68050;SDS011;54839;51.364;7.246;2023-03-14T09:01:08;1.70;;;1.50;;
68050;SDS011;54839;51.364;7.246;2023-03-14T09:03:35;2.63;;;1.33;;
68050;SDS011;54839;51.364;7.246;2023-03-14T09:06:02;2.27;;;1.03;;
68050;SDS011;54839;51.364;7.246;2023-03-14T09:08:28;2.00;;;1.50;;
68050;SDS011;54839;51.364;7.246;2023-03-14T09:10:54;1.83;;;1.50;;
68050;SDS011;54839;51.364;7.246;2023-03-14T09:13:19;1.53;;;1.43;;
68050;SDS011;54839;51.364;7.246;2023-03-14T09:15:49;1.90;;;1.50;;
68050;SDS011;54839;51.364;7.246;2023-03-14T09:18:19;1.43;;;1.33;;
68050;SDS011;54839;51.364;7.246;2023-03-14T09:20:45;1.70;;;1.60;;
68050;SDS011;54839;51.364;7.246;2023-03-14T09:23:11;1.70;;;1.10;;
68050;SDS011;54839;51.364;7.246;2023-03-14T09:25:36;2.37;;;1.23;;
68050;SDS011;54839;51.364;7.246;2023-03-14T09:28:02;1.03;;;0.93;;
68050;SDS011;54839;51.364;7.246;2023-03-14T09:30:27;1.10;;;1.00;;
68050;SDS011;54839;51.364;7.246;2023-03-14T09:32:53;0.97;;;0.80;;
68050;SDS011;54839;51.364;7.246;2023-03-14T09:35:19;1.40;;;1.27;;
68050;SDS011;54839;51.364;7.246;2023-03-14T09:37:44;0.70;;;0.60;;
68050;SDS011;54839;51.364;7.246;2023-03-14T09:40:14;1.10;;;0.77;;
68050;SDS011;54839;51.364;7.246;2023-03-14T09:42:41;1.23;;;0.97;;
68050;SDS011;54839;51.364;7.246;2023-03-14T09:45:11;1.30;;;0.70;;
68050;SDS011;54839;51.364;7.246;2023-03-14T09:47:43;0.70;;;0.40;;
68050;SDS011;54839;51.364;7.246;2023-03-14T09:50:14;2.30;;;0.50;;
68050;SDS011;54839;51.364;7.246;2023-03-14T09:52:41;0.70;;;0.30;;
68050;SDS011;54839;51.364;7.246;2023-03-14T09:55:21;0.73;;;0.60;;
68050;SDS011;54839;51.364;7.246;2023-03-14T09:57:48;1.90;;;0.43;;
68050;SDS011;54839;51.364;7.246;2023-03-14T10:00:19;1.93;;;0.60;;
68050;SDS011;54839;51.364;7.246;2023-03-14T10:02:53;0.80;;;0.60;;
68050;SDS011;54839;51.364;7.246;2023-03-14T10:05:38;3.03;;;1.13;;
68050;SDS011;54839;51.364;7.246;2023-03-14T10:08:10;1.90;;;0.87;;
68050;SDS011;54839;51.364;7.246;2023-03-14T10:10:36;3.20;;;0.60;;
68050;SDS011;54839;51.364;7.246;2023-03-14T10:15:55;2.40;;;1.50;;
68050;SDS011;54839;51.364;7.246;2023-03-14T10:18:29;1.27;;;1.07;;
68050;SDS011;54839;51.364;7.246;2023-03-14T10:21:03;1.40;;;1.30;;
68050;SDS011;54839;51.364;7.246;2023-03-14T10:23:47;1.50;;;1.40;;
68050;SDS011;54839;51.364;7.246;2023-03-14T10:26:13;2.60;;;1.73;;
68050;SDS011;54839;51.364;7.246;2023-03-14T10:28:44;3.83;;;1.37;;
68050;SDS011;54839;51.364;7.246;2023-03-14T10:31:12;1.37;;;1.20;;
68050;SDS011;54839;51.364;7.246;2023-03-14T10:33:38;1.27;;;0.97;;
68050;SDS011;54839;51.364;7.246;2023-03-14T10:38:52;1.30;;;1.13;;
68050;SDS011;54839;51.364;7.246;2023-03-14T10:41:30;1.83;;;1.20;;
68050;SDS011;54839;51.364;7.246;2023-03-14T10:43:59;3.87;;;1.70;;
68050;SDS011;54839;51.364;7.246;2023-03-14T10:46:27;2.40;;;1.10;;
68050;SDS011;54839;51.364;7.246;2023-03-14T10:48:56;3.37;;;1.63;;
68050;SDS011;54839;51.364;7.246;2023-03-14T10:51:26;1.83;;;1.73;;
68050;SDS011;54839;51.364;7.246;2023-03-14T10:56:24;1.77;;;1.23;;
68050;SDS011;54839;51.364;7.246;2023-03-14T10:58:51;2.20;;;2.00;;
68050;SDS011;54839;51.364;7.246;2023-03-14T11:01:37;1.90;;;1.23;;
68050;SDS011;54839;51.364;7.246;2023-03-14T11:07:03;1.30;;;1.03;;
68050;SDS011;54839;51.364;7.246;2023-03-14T11:09:56;4.27;;;1.10;;
68050;SDS011;54839;51.364;7.246;2023-03-14T11:15:49;2.70;;;1.43;;
68050;SDS011;54839;51.364;7.246;2023-03-14T11:20:51;4.63;;;1.83;;
68050;SDS011;54839;51.364;7.246;2023-03-14T11:23:26;3.83;;;1.67;;
68050;SDS011;54839;51.364;7.246;2023-03-14T11:26:05;3.23;;;1.77;;
68050;SDS011;54839;51.364;7.246;2023-03-14T11:28:37;1.77;;;1.67;;
68050;SDS011;54839;51.364;7.246;2023-03-14T11:33:38;1.73;;;1.17;;
68050;SDS011;54839;51.364;7.246;2023-03-14T11:36:21;1.70;;;1.10;;
68050;SDS011;54839;51.364;7.246;2023-03-14T11:38:56;3.00;;;1.37;;
68050;SDS011;54839;51.364;7.246;2023-03-14T11:41:29;2.70;;;1.37;;
68050;SDS011;54839;51.364;7.246;2023-03-14T11:44:03;2.90;;;1.30;;
68050;SDS011;54839;51.364;7.246;2023-03-14T11:46:49;1.97;;;1.27;;
68050;SDS011;54839;51.364;7.246;2023-03-14T11:51:56;2.50;;;1.13;;
68050;SDS011;54839;51.364;7.246;2023-03-14T11:54:33;1.80;;;1.20;;
68050;SDS011;54839;51.364;7.246;2023-03-14T11:57:04;3.27;;;1.43;;
68050;SDS011;54839;51.364;7.246;2023-03-14T12:05:43;1.53;;;1.33;;
68050;SDS011;54839;51.364;7.246;2023-03-14T12:10:56;6.13;;;3.77;;
68050;SDS011;54839;51.364;7.246;2023-03-14T12:13:29;3.53;;;3.23;;
68050;SDS011;54839;51.364;7.246;2023-03-14T12:15:59;2.40;;;2.20;;
68050;SDS011;54839;51.364;7.246;2023-03-14T12:18:29;2.13;;;1.27;;
68050;SDS011;54839;51.364;7.246;2023-03-14T12:20:57;1.90;;;1.70;;
68050;SDS011;54839;51.364;7.246;2023-03-14T12:23:34;2.73;;;2.23;;
68050;SDS011;54839;51.364;7.246;2023-03-14T12:26:08;7.57;;;1.20;;
68050;SDS011;54839;51.364;7.246;2023-03-14T12:28:38;2.17;;;1.40;;
68050;SDS011;54839;51.364;7.246;2023-03-14T12:32:04;1.83;;;1.17;;
68050;SDS011;54839;51.364;7.246;2023-03-14T12:34:02;3.70;;;1.87;;
68050;SDS011;54839;51.364;7.246;2023-03-14T12:41:59;2.03;;;1.60;;
68050;SDS011;54839;51.364;7.246;2023-03-14T12:46:58;4.47;;;1.70;;
68050;SDS011;54839;51.364;7.246;2023-03-14T12:49:53;4.43;;;1.40;;
68050;SDS011;54839;51.364;7.246;2023-03-14T12:52:36;8.73;;;2.10;;
68050;SDS011;54839;51.364;7.246;2023-03-14T12:57:59;4.97;;;2.00;;
68050;SDS011;54839;51.364;7.246;2023-03-14T13:00:40;2.27;;;1.60;;
68050;SDS011;54839;51.364;7.246;2023-03-14T13:05:54;2.00;;;1.80;;
68050;SDS011;54839;51.364;7.246;2023-03-14T13:08:33;6.33;;;1.80;;
68050;SDS011;54839;51.364;7.246;2023-03-14T13:11:12;4.67;;;1.80;;
68050;SDS011;54839;51.364;7.246;2023-03-14T13:13:45;7.17;;;1.90;;
68050;SDS011;54839;51.364;7.246;2023-03-14T13:16:15;5.90;;;2.27;;
68050;SDS011;54839;51.364;7.246;2023-03-14T13:18:46;5.93;;;1.90;;
68050;SDS011;54839;51.364;7.246;2023-03-14T13:21:20;4.33;;;2.10;;
68050;SDS011;54839;51.364;7.246;2023-03-14T13:24:00;6.43;;;1.63;;
68050;SDS011;54839;51.364;7.246;2023-03-14T13:26:38;3.63;;;1.20;;
68050;SDS011;54839;51.364;7.246;2023-03-14T13:29:47;7.70;;;1.27;;
68050;SDS011;54839;51.364;7.246;2023-03-14T13:31:58;4.13;;;1.37;;
68050;SDS011;54839;51.364;7.246;2023-03-14T13:34:29;8.80;;;2.60;;
68050;SDS011;54839;51.364;7.246;2023-03-14T13:36:56;5.73;;;2.17;;
68050;SDS011;54839;51.364;7.246;2023-03-14T13:39:23;6.43;;;1.80;;
68050;SDS011;54839;51.364;7.246;2023-03-14T13:41:53;6.43;;;2.93;;
68050;SDS011;54839;51.364;7.246;2023-03-14T13:44:27;2.90;;;2.20;;
68050;SDS011;54839;51.364;7.246;2023-03-14T13:47:04;5.10;;;1.93;;
68050;SDS011;54839;51.364;7.246;2023-03-14T13:49:34;6.50;;;2.80;;
68050;SDS011;54839;51.364;7.246;2023-03-14T13:52:02;7.20;;;3.50;;
68050;SDS011;54839;51.364;7.246;2023-03-14T13:54:29;11.87;;;4.77;;
68050;SDS011;54839;51.364;7.246;2023-03-14T13:57:00;12.20;;;2.60;;
68050;SDS011;54839;51.364;7.246;2023-03-14T13:59:27;8.60;;;2.50;;
68050;SDS011;54839;51.364;7.246;2023-03-14T14:01:55;10.00;;;3.27;;
68050;SDS011;54839;51.364;7.246;2023-03-14T14:04:23;13.10;;;2.83;;
68050;SDS011;54839;51.364;7.246;2023-03-14T14:06:52;9.40;;;2.47;;
68050;SDS011;54839;51.364;7.246;2023-03-14T14:09:20;10.53;;;3.93;;
68050;SDS011;54839;51.364;7.246;2023-03-14T14:12:06;11.63;;;3.00;;
68050;SDS011;54839;51.364;7.246;2023-03-14T14:17:22;12.63;;;2.47;;
68050;SDS011;54839;51.364;7.246;2023-03-14T14:19:55;8.30;;;3.63;;
68050;SDS011;54839;51.364;7.246;2023-03-14T14:22:21;4.63;;;1.77;;
68050;SDS011;54839;51.364;7.246;2023-03-14T14:24:47;8.73;;;2.90;;
68050;SDS011;54839;51.364;7.246;2023-03-14T14:27:15;11.33;;;3.20;;
68050;SDS011;54839;51.364;7.246;2023-03-14T14:29:56;18.33;;;3.47;;
68050;SDS011;54839;51.364;7.246;2023-03-14T14:32:42;5.20;;;1.70;;
68050;SDS011;54839;51.364;7.246;2023-03-14T14:35:54;8.97;;;3.27;;
68050;SDS011;54839;51.364;7.246;2023-03-14T14:37:58;6.33;;;2.67;;
68050;SDS011;54839;51.364;7.246;2023-03-14T14:40:25;8.00;;;2.47;;
68050;SDS011;54839;51.364;7.246;2023-03-14T14:42:53;10.40;;;2.53;;
68050;SDS011;54839;51.364;7.246;2023-03-14T14:45:20;11.13;;;4.27;;
68050;SDS011;54839;51.364;7.246;2023-03-14T14:47:49;7.10;;;2.20;;
68050;SDS011;54839;51.364;7.246;2023-03-14T14:52:47;6.83;;;3.03;;
68050;SDS011;54839;51.364;7.246;2023-03-14T14:55:17;7.97;;;2.70;;
68050;SDS011;54839;51.364;7.246;2023-03-14T14:57:48;6.37;;;2.50;;
68050;SDS011;54839;51.364;7.246;2023-03-14T15:00:22;9.83;;;4.30;;
68050;SDS011;54839;51.364;7.246;2023-03-14T15:02:51;9.83;;;3.20;;
68050;SDS011;54839;51.364;7.246;2023-03-14T15:05:21;12.73;;;3.63;;
68050;SDS011;54839;51.364;7.246;2023-03-14T15:07:48;9.23;;;2.70;;
68050;SDS011;54839;51.364;7.246;2023-03-14T15:10:17;5.77;;;2.37;;
68050;SDS011;54839;51.364;7.246;2023-03-14T15:12:45;7.90;;;2.37;;
68050;SDS011;54839;51.364;7.246;2023-03-14T15:15:13;8.83;;;1.87;;
68050;SDS011;54839;51.364;7.246;2023-03-14T15:17:39;8.97;;;2.20;;
68050;SDS011;54839;51.364;7.246;2023-03-14T15:20:05;6.43;;;1.80;;
68050;SDS011;54839;51.364;7.246;2023-03-14T15:22:34;7.67;;;1.57;;
68050;SDS011;54839;51.364;7.246;2023-03-14T15:25:00;5.60;;;1.97;;
68050;SDS011;54839;51.364;7.246;2023-03-14T15:27:25;10.80;;;2.87;;
68050;SDS011;54839;51.364;7.246;2023-03-14T15:29:55;7.20;;;2.13;;
68050;SDS011;54839;51.364;7.246;2023-03-14T15:32:21;9.53;;;2.10;;
68050;SDS011;54839;51.364;7.246;2023-03-14T15:34:46;9.20;;;2.30;;
68050;SDS011;54839;51.364;7.246;2023-03-14T15:37:12;6.90;;;2.10;;
68050;SDS011;54839;51.364;7.246;2023-03-14T15:39:40;6.73;;;2.30;;
68050;SDS011;54839;51.364;7.246;2023-03-14T15:42:06;5.23;;;2.30;;
68050;SDS011;54839;51.364;7.246;2023-03-14T15:44:32;9.30;;;2.20;;
68050;SDS011;54839;51.364;7.246;2023-03-14T15:46:58;5.30;;;1.50;;
68050;SDS011;54839;51.364;7.246;2023-03-14T15:49:24;8.33;;;2.17;;
68050;SDS011;54839;51.364;7.246;2023-03-14T15:51:49;13.90;;;3.53;;